Time;durP1;ratioP1;P1;durP2;ratioP2;P2;SDS_P1;SDS_P2;PMS_P1;PMS_P2;Temp;Humidity;BMP_temperature;BMP_pressure;BME280_temperature;BME280_humidity;BME280_pressure;Samples;Min_cycle;Max_cycle;Signal;HPM_P1;HPM_P2
2023/02/04 00:01:02;;;;;;;5.53;1.27;;;16.90;99.50;;;;;;10356413;28;20495;-26
2023/02/04 00:06:05;;;;;;;8.63;1.83;;;16.90;99.60;;;;;;10365087;28;20474;-27
2023/02/04 00:11:07;;;;;;;11.52;2.03;;;16.90;99.20;;;;;;10368024;28;20133;-25
2023/02/04 00:16:09;;;;;;;9.90;1.80;;;16.40;99.90;;;;;;10364183;28;20131;-25
2023/02/04 00:21:12;;;;;;;4.80;1.70;;;16.80;99.20;;;;;;10356852;28;20455;-27
2023/02/04 00:26:14;;;;;;;4.80;1.60;;;17.00;99.10;;;;;;10364745;28;20133;-26
2023/02/04 00:31:16;;;;;;;7.70;2.23;;;17.00;98.60;;;;;;10357852;28;20757;-26
2023/02/04 00:36:19;;;;;;;7.73;1.83;;;17.10;98.40;;;;;;10355004;28;20142;-25
2023/02/04 00:41:21;;;;;;;6.50;2.17;;;16.70;99.50;;;;;;10366612;28;20077;-30
2023/02/04 00:46:23;;;;;;;4.38;1.58;;;16.80;99.80;;;;;;10353961;28;20084;-27
2023/02/04 00:51:26;;;;;;;6.57;1.90;;;16.30;99.90;;;;;;10362364;28;20479;-26
2023/02/04 00:56:28;;;;;;;9.93;1.98;;;16.50;99.90;;;;;;10364081;28;20050;-26
2023/02/04 01:01:30;;;;;;;6.77;2.00;;;16.70;99.30;;;;;;10356734;28;20501;-26
2023/02/04 01:06:33;;;;;;;5.15;1.98;;;16.80;99.60;;;;;;10362800;28;20655;-26
2023/02/04 01:11:36;;;;;;;4.15;1.60;;;16.80;99.20;;;;;;10367076;28;20093;-26
2023/02/04 01:16:38;;;;;;;3.13;1.13;;;16.70;99.40;;;;;;10347636;28;20089;-25
2023/02/04 01:21:41;;;;;;;4.87;1.60;;;17.00;98.40;;;;;;10356288;28;20503;-26
2023/02/04 01:26:43;;;;;;;6.38;1.63;;;17.10;98.00;;;;;;10346689;28;20112;-26
2023/02/04 01:31:45;;;;;;;5.47;1.50;;;17.00;98.00;;;;;;10350155;28;20054;-26
2023/02/04 01:36:48;;;;;;;3.93;1.43;;;17.10;97.80;;;;;;10360443;28;20137;-26
2023/02/04 01:41:50;;;;;;;5.65;1.58;;;17.10;97.80;;;;;;10351984;28;20045;-26
2023/02/04 01:46:52;;;;;;;10.82;1.95;;;17.00;97.80;;;;;;10361262;28;20108;-26
2023/02/04 01:51:56;;;;;;;5.70;1.23;;;17.10;97.60;;;;;;10347549;28;20132;-25
2023/02/04 01:56:57;;;;;;;3.92;1.00;;;17.00;97.60;;;;;;10349110;28;20136;-25
2023/02/04 02:01:59;;;;;;;3.00;1.07;;;17.00;97.80;;;;;;10356778;28;20750;-26
2023/02/04 02:07:06;;;;;;;6.63;1.60;;;17.00;97.70;;;;;;10350477;28;20100;-32
2023/02/04 02:12:08;;;;;;;11.20;1.77;;;16.20;99.90;;;;;;10347228;28;20588;-27
2023/02/04 02:17:10;;;;;;;4.00;1.13;;;16.50;99.90;;;;;;10352287;28;20045;-28
2023/02/04 02:22:20;;;;;;;8.70;2.50;;;16.80;98.90;;;;;;10354183;28;20077;-26
2023/02/04 02:27:23;;;;;;;7.63;2.28;;;17.00;98.00;;;;;;10346749;28;20125;-26
2023/02/04 02:32:25;;;;;;;2.80;0.98;;;16.80;98.50;;;;;;10348963;28;20140;-25
2023/02/04 02:37:27;;;;;;;5.67;1.10;;;16.90;97.90;;;;;;10355899;28;20149;-25
2023/02/04 02:42:31;;;;;;;3.78;1.00;;;17.00;97.80;;;;;;10361137;28;20042;-25
2023/02/04 02:47:33;;;;;;;7.65;1.85;;;17.00;97.60;;;;;;10359188;28;20085;-28
2023/02/04 02:52:35;;;;;;;4.28;1.45;;;16.90;97.80;;;;;;10352734;28;20049;-26
2023/02/04 02:57:38;;;;;;;6.00;1.40;;;16.10;99.90;;;;;;10357907;28;20208;-26
2023/02/04 03:02:40;;;;;;;12.45;2.00;;;16.80;98.40;;;;;;10362896;28;20086;-25
2023/02/04 03:07:42;;;;;;;4.00;1.20;;;16.30;99.90;;;;;;10352097;28;20100;-26
2023/02/04 03:12:47;;;;;;;3.38;0.90;;;16.90;98.00;;;;;;10362763;28;20516;-28
2023/02/04 03:17:55;;;;;;;5.63;1.35;;;17.00;97.60;;;;;;10356488;28;20052;-26
2023/02/04 03:22:57;;;;;;;5.25;1.40;;;17.00;97.30;;;;;;10359310;28;20046;-26
2023/02/04 03:28:01;;;;;;;3.70;1.15;;;17.00;97.30;;;;;;10349312;28;20050;-25
2023/02/04 03:33:03;;;;;;;6.70;1.27;;;17.00;97.20;;;;;;10353725;28;20082;-25
2023/02/04 03:38:05;;;;;;;6.63;1.60;;;17.10;97.10;;;;;;10356441;28;20056;-25
2023/02/04 03:43:08;;;;;;;6.40;1.20;;;17.00;97.00;;;;;;10367723;28;20086;-26
2023/02/04 03:48:10;;;;;;;4.68;1.40;;;17.00;97.10;;;;;;10354547;28;21073;-24
2023/02/04 03:53:12;;;;;;;3.50;1.30;;;17.00;97.00;;;;;;10365357;28;20117;-25
2023/02/04 03:58:15;;;;;;;3.38;0.88;;;17.00;96.90;;;;;;10354854;28;20065;-24
2023/02/04 04:03:17;;;;;;;5.15;1.30;;;17.00;96.90;;;;;;10366008;28;20053;-26
2023/02/04 04:08:19;;;;;;;3.73;1.10;;;17.00;97.00;;;;;;10365743;28;20119;-25
2023/02/04 04:13:22;;;;;;;2.87;1.00;;;17.00;97.00;;;;;;10365189;28;20077;-25
2023/02/04 04:18:24;;;;;;;4.25;1.15;;;17.00;96.90;;;;;;10360063;28;20147;-25
2023/02/04 04:23:26;;;;;;;6.17;1.30;;;17.10;96.90;;;;;;10368078;28;20046;-26
2023/02/04 04:28:30;;;;;;;5.57;1.38;;;17.00;97.00;;;;;;10352829;28;20046;-26
2023/02/04 04:33:32;;;;;;;4.53;1.35;;;17.00;97.00;;;;;;10361853;28;20173;-26
2023/02/04 04:38:33;;;;;;;2.53;1.00;;;17.10;96.80;;;;;;10359156;28;20061;-26
2023/02/04 04:43:37;;;;;;;2.63;0.90;;;17.00;96.70;;;;;;10350037;28;20050;-25
2023/02/04 04:48:39;;;;;;;5.47;1.30;;;17.00;96.70;;;;;;10366638;28;20057;-27
2023/02/04 04:53:41;;;;;;;5.75;1.20;;;17.10;96.70;;;;;;10369812;28;20092;-25
2023/02/04 04:58:44;;;;;;;6.70;1.73;;;17.00;96.70;;;;;;10368537;28;20121;-26
2023/02/04 05:03:46;;;;;;;4.57;1.23;;;17.00;96.60;;;;;;10359599;28;20054;-24
2023/02/04 05:08:48;;;;;;;3.60;0.93;;;17.00;96.60;;;;;;10368555;28;20052;-25
2023/02/04 05:13:51;;;;;;;5.78;1.13;;;17.00;96.60;;;;;;10366349;28;20054;-25
2023/02/04 05:18:54;;;;;;;3.45;1.08;;;17.00;96.60;;;;;;10366954;28;20060;-25
2023/02/04 05:23:55;;;;;;;;;;;17.00;96.60;;;;;;10367837;28;20112;-25
2023/02/04 05:29:00;;;;;;;3.00;1.00;;;17.00;96.60;;;;;;10362120;28;19953;-26
2023/02/04 05:34:02;;;;;;;5.30;1.23;;;17.00;96.60;;;;;;10367487;28;20551;-27
2023/02/04 05:39:04;;;;;;;6.13;1.27;;;17.00;96.50;;;;;;10366843;28;20073;-26
2023/02/04 05:44:07;;;;;;;4.22;1.30;;;17.00;96.50;;;;;;10358138;28;20049;-26
2023/02/04 05:49:11;;;;;;;4.53;1.65;;;17.00;96.40;;;;;;10353607;28;20048;-26
2023/02/04 05:54:18;;;;;;;4.35;1.15;;;17.00;96.40;;;;;;10359440;28;20043;-26
2023/02/04 05:59:21;;;;;;;7.43;1.40;;;17.00;96.40;;;;;;10363200;28;20475;-25
2023/02/04 06:04:23;;;;;;;3.53;1.08;;;17.10;96.30;;;;;;10359842;28;20049;-26
2023/02/04 06:09:25;;;;;;;5.23;1.20;;;17.10;96.30;;;;;;10360509;28;20521;-25
2023/02/04 06:14:28;;;;;;;2.72;0.88;;;17.20;96.00;;;;;;10361678;28;20548;-27
2023/02/04 06:19:30;;;;;;;4.32;1.40;;;17.20;96.00;;;;;;10362564;28;20112;-25
2023/02/04 06:24:32;;;;;;;2.07;0.90;;;17.20;96.10;;;;;;10364135;28;20100;-27
2023/02/04 06:29:35;;;;;;;4.82;1.42;;;17.30;96.00;;;;;;10352438;28;20073;-24
2023/02/04 06:34:37;;;;;;;4.05;1.27;;;17.30;95.80;;;;;;10341982;28;20376;-26
2023/02/04 06:39:39;;;;;;;4.30;1.00;;;17.30;95.90;;;;;;10353390;28;20451;-26
2023/02/04 06:44:42;;;;;;;4.82;1.17;;;17.40;96.00;;;;;;10353656;28;20156;-26
2023/02/04 06:49:44;;;;;;;2.78;1.13;;;17.40;95.90;;;;;;10364773;28;20049;-26
2023/02/04 06:54:46;;;;;;;3.80;1.30;;;17.40;96.00;;;;;;10352783;28;20073;-25
2023/02/04 06:59:49;;;;;;;2.40;1.13;;;17.40;96.00;;;;;;10357743;28;20141;-27
2023/02/04 07:15:02;;;;;;;5.25;1.17;;;17.40;95.60;;;;;;10528106;27;1331536;-26
2023/02/04 07:20:04;;;;;;;5.25;1.10;;;17.50;96.10;;;;;;10580210;28;20047;-26
2023/02/04 07:25:06;;;;;;;6.35;1.42;;;17.50;96.00;;;;;;10579087;28;20039;-25
2023/02/04 07:30:11;;;;;;;8.10;1.85;;;17.50;96.10;;;;;;10578493;28;20124;-25
2023/02/04 07:35:13;;;;;;;6.60;1.35;;;17.50;96.10;;;;;;10580654;28;20104;-24
2023/02/04 07:40:16;;;;;;;4.93;1.47;;;17.50;96.00;;;;;;10593419;28;20126;-27
2023/02/04 07:45:19;;;;;;;;;;;17.50;96.10;;;;;;10606672;28;20223;-27
2023/02/04 07:50:21;;;;;;;3.90;2.10;;;17.50;96.10;;;;;;10585579;28;20331;-26
2023/02/04 07:55:23;;;;;;;5.30;1.95;;;17.50;96.20;;;;;;10583323;28;20112;-26
2023/02/04 08:00:26;;;;;;;3.28;1.70;;;17.40;96.60;;;;;;10587811;28;20442;-29
2023/02/04 08:05:29;;;;;;;6.07;2.30;;;17.60;96.20;;;;;;10579673;28;20104;-26
2023/02/04 08:10:31;;;;;;;6.57;2.58;;;17.60;96.30;;;;;;10592828;28;20101;-27
2023/02/04 08:15:34;;;;;;;7.47;2.23;;;17.60;96.20;;;;;;10588591;28;20082;-28
2023/02/04 08:20:36;;;;;;;4.30;1.80;;;17.60;96.30;;;;;;10589381;28;20051;-25
2023/02/04 08:25:38;;;;;;;6.10;2.22;;;17.70;96.40;;;;;;10564709;28;20176;-26
2023/02/04 08:30:41;;;;;;;;;;;17.70;96.30;;;;;;10566406;28;20098;-25
2023/02/04 08:35:43;;;;;;;;;;;17.70;96.60;;;;;;10568869;28;19923;-26
2023/02/04 08:40:45;;;;;;;5.20;1.70;;;17.70;96.80;;;;;;10560804;28;19933;-25
2023/02/04 08:45:48;;;;;;;5.73;2.13;;;17.70;96.90;;;;;;10569955;28;20054;-27
2023/02/04 08:50:50;;;;;;;8.43;2.92;;;17.80;96.90;;;;;;10558464;28;20080;-26
2023/02/04 08:55:52;;;;;;;11.53;2.47;;;17.80;97.00;;;;;;10573170;28;20142;-25
2023/02/04 09:00:55;;;;;;;5.10;1.63;;;17.80;97.00;;;;;;10546261;28;20138;-26
2023/02/04 09:05:57;;;;;;;4.05;1.65;;;17.90;96.90;;;;;;10550475;28;20067;-28
2023/02/04 09:10:59;;;;;;;4.70;1.93;;;17.80;96.90;;;;;;10548767;28;20083;-27
2023/02/04 09:16:02;;;;;;;7.15;2.00;;;17.80;97.20;;;;;;10562625;28;20134;-25
2023/02/04 09:21:05;;;;;;;5.63;2.20;;;17.60;97.60;;;;;;10552070;28;20124;-26
2023/02/04 09:26:06;;;;;;;5.93;2.10;;;17.30;98.90;;;;;;10563800;28;20074;-27
2023/02/04 09:31:10;;;;;;;9.75;2.10;;;17.30;98.60;;;;;;10563173;28;20139;-25
2023/02/04 09:36:12;;;;;;;5.72;2.55;;;17.60;97.90;;;;;;10559721;28;20047;-26
2023/02/04 09:41:15;;;;;;;3.75;2.00;;;17.20;98.50;;;;;;10561774;28;20052;-26
2023/02/04 09:46:21;;;;;;;7.20;1.92;;;17.30;99.60;;;;;;10543321;28;20464;-27
2023/02/04 09:51:27;;;;;;;4.63;2.25;;;18.00;97.00;;;;;;10549824;28;20138;-26
2023/02/04 09:56:30;;;;;;;6.72;2.08;;;18.00;97.10;;;;;;10543123;28;20146;-26
2023/02/04 10:01:33;;;;;;;5.47;1.92;;;18.10;96.50;;;;;;10556654;28;20083;-28
2023/02/04 10:06:36;;;;;;;12.80;2.30;;;18.20;96.20;;;;;;10547841;28;20123;-27
2023/02/04 10:11:39;;;;;;;6.43;2.40;;;18.30;96.00;;;;;;10548497;28;20113;-27
2023/02/04 10:16:47;;;;;;;5.15;2.00;;;18.30;95.80;;;;;;10558768;28;20154;-30
2023/02/04 10:21:50;;;;;;;8.63;1.77;;;18.30;95.90;;;;;;10561530;28;20081;-26
2023/02/04 10:26:52;;;;;;;8.82;3.15;;;18.40;95.80;;;;;;10560848;28;20075;-27
2023/02/04 10:31:55;;;;;;;5.78;1.73;;;18.40;95.80;;;;;;10568998;28;20108;-26
2023/02/04 10:36:57;;;;;;;6.13;1.85;;;18.40;95.70;;;;;;10549176;28;20506;-26
2023/02/04 10:42:00;;;;;;;6.10;1.90;;;18.40;95.60;;;;;;10551285;28;20063;-29
2023/02/04 10:47:06;;;;;;;10.95;2.65;;;18.40;96.00;;;;;;10540829;28;20066;-29
2023/02/04 10:52:17;;;;;;;7.63;2.22;;;18.30;96.20;;;;;;10558983;28;20134;-27
2023/02/04 10:57:22;;;;;;;9.20;2.22;;;18.20;96.40;;;;;;10551629;28;20075;-26
2023/02/04 11:02:41;;;;;;;8.23;2.97;;;18.20;96.80;;;;;;10549436;28;20569;-24
2023/02/04 11:07:45;;;;;;;12.55;3.65;;;18.50;96.00;;;;;;10543196;28;20071;-28
2023/02/04 11:13:00;;;;;;;16.45;3.97;;;18.60;95.90;;;;;;10550195;28;20055;-27
2023/02/04 11:18:05;;;;;;;21.65;5.20;;;18.70;95.60;;;;;;10549055;28;20049;-27
2023/02/04 11:23:31;;;;;;;16.98;4.57;;;18.70;95.40;;;;;;10561993;28;20044;-28
2023/02/04 11:28:45;;;;;;;18.20;5.40;;;18.60;95.50;;;;;;10547115;28;20495;-28
2023/02/04 11:33:49;;;;;;;20.35;5.38;;;18.70;95.60;;;;;;10564702;28;20075;-26
2023/02/04 11:38:51;;;;;;;17.65;5.03;;;18.70;95.70;;;;;;10547869;28;20151;-27
2023/02/04 11:43:55;;;;;;;12.60;4.45;;;18.70;95.60;;;;;;10545967;28;20079;-25
2023/02/04 11:48:59;;;;;;;19.75;4.68;;;18.70;95.70;;;;;;10547674;28;20117;-27
2023/02/04 11:54:01;;;;;;;13.20;3.97;;;18.70;95.60;;;;;;10564385;28;20551;-26
2023/02/04 11:59:03;;;;;;;13.57;4.25;;;18.80;95.70;;;;;;10563564;28;20543;-26
2023/02/04 12:04:08;;;;;;;13.43;3.90;;;18.80;95.70;;;;;;10566808;28;20587;-27
2023/02/04 12:09:26;;;;;;;10.93;4.35;;;18.80;95.80;;;;;;10559681;28;20101;-26
2023/02/04 12:14:32;;;;;;;11.98;3.83;;;18.80;95.70;;;;;;10564483;28;20055;-26
2023/02/04 12:19:36;;;;;;;10.48;3.17;;;18.80;95.70;;;;;;10547573;28;20399;-27
2023/02/04 12:24:37;;;;;;;8.90;3.35;;;18.90;95.70;;;;;;10543304;28;20078;-28
2023/02/04 12:29:39;;;;;;;9.95;2.97;;;18.90;95.50;;;;;;10541047;28;20071;-30
2023/02/04 12:34:43;;;;;;;9.45;3.05;;;18.90;95.40;;;;;;10544628;28;20051;-27
2023/02/04 12:39:44;;;;;;;7.93;3.17;;;18.90;95.30;;;;;;10557821;28;20044;-27
2023/02/04 12:44:46;;;;;;;7.47;3.55;;;18.90;95.30;;;;;;10549999;28;20044;-26
2023/02/04 12:49:50;;;;;;;7.17;2.37;;;18.80;95.40;;;;;;10555839;28;20043;-27
2023/02/04 12:54:51;;;;;;;10.80;2.75;;;18.80;95.50;;;;;;10551219;28;20505;-27
2023/02/04 12:59:56;;;;;;;7.13;2.43;;;18.70;95.70;;;;;;10553409;28;20042;-26
2023/02/04 13:04:59;;;;;;;4.40;2.30;;;18.80;96.00;;;;;;10551752;28;20529;-27
2023/02/04 13:10:01;;;;;;;6.05;2.17;;;18.80;95.70;;;;;;10541273;28;20142;-26
2023/02/04 13:15:04;;;;;;;5.88;2.22;;;18.80;95.70;;;;;;10541940;28;20403;-26
2023/02/04 13:20:08;;;;;;;7.43;2.45;;;18.90;95.60;;;;;;10545823;28;20127;-26
2023/02/04 13:25:10;;;;;;;7.45;1.98;;;18.80;95.70;;;;;;10543313;28;20040;-24
2023/02/04 13:30:13;;;;;;;;;;;18.70;95.90;;;;;;10555326;28;20047;-26
2023/02/04 13:35:18;;;;;;;7.72;2.25;;;18.50;96.20;;;;;;10559924;28;20007;-25
2023/02/04 13:40:20;;;;;;;5.40;2.10;;;18.40;96.40;;;;;;10554739;28;20660;-27
2023/02/04 13:45:22;;;;;;;5.65;2.15;;;18.50;96.20;;;;;;10557020;28;20060;-28
2023/02/04 13:50:25;;;;;;;4.17;1.73;;;18.50;96.20;;;;;;10559691;28;20044;-25
2023/02/04 13:55:27;;;;;;;4.45;1.63;;;18.60;96.10;;;;;;10557159;28;20155;-27
2023/02/04 14:00:29;;;;;;;3.45;1.75;;;18.60;96.20;;;;;;10564498;28;20052;-26
2023/02/04 14:05:32;;;;;;;5.13;2.73;;;18.60;96.00;;;;;;10550056;28;20134;-26
2023/02/04 14:10:34;;;;;;;8.27;3.70;;;18.60;96.10;;;;;;10548613;28;20506;-26
2023/02/04 14:15:36;;;;;;;7.27;3.00;;;18.50;96.00;;;;;;10545223;28;20114;-26
2023/02/04 14:20:39;;;;;;;8.82;2.90;;;18.50;96.30;;;;;;10558377;28;20036;-23
2023/02/04 14:25:41;;;;;;;4.85;2.20;;;18.40;96.60;;;;;;10547887;28;20051;-27
2023/02/04 14:30:43;;;;;;;3.83;1.75;;;18.40;96.40;;;;;;10544439;28;20495;-26
2023/02/04 14:35:46;;;;;;;3.97;2.10;;;18.40;96.30;;;;;;10559452;28;20055;-27
2023/02/04 14:40:48;;;;;;;5.50;1.90;;;18.40;96.30;;;;;;10555920;28;20050;-27
2023/02/04 14:45:50;;;;;;;6.80;3.08;;;18.30;96.80;;;;;;10563066;28;20071;-27
2023/02/04 14:50:53;;;;;;;10.77;3.28;;;18.10;97.60;;;;;;10553667;28;20508;-26
2023/02/04 14:55:55;;;;;;;7.03;2.97;;;18.30;97.00;;;;;;10543403;28;20075;-26
2023/02/04 15:00:57;;;;;;;6.40;3.17;;;18.30;96.80;;;;;;10554675;28;20051;-27
2023/02/04 15:06:00;;;;;;;5.23;2.50;;;18.40;96.60;;;;;;10571002;28;20118;-25
2023/02/04 15:11:02;;;;;;;5.13;3.13;;;18.10;97.80;;;;;;10551965;28;20514;-29
2023/02/04 15:16:05;;;;;;;7.93;3.38;;;18.20;97.50;;;;;;10556948;28;20067;-27
2023/02/04 15:21:08;;;;;;;8.63;3.88;;;18.20;97.50;;;;;;10552593;28;20086;-27
2023/02/04 15:26:10;;;;;;;7.90;4.20;;;18.20;97.40;;;;;;10554796;28;20098;-25
2023/02/04 15:31:12;;;;;;;10.07;4.28;;;18.30;97.30;;;;;;10543868;28;20074;-25
2023/02/04 15:36:15;;;;;;;8.10;4.77;;;17.40;99.90;;;;;;10562385;28;20135;-24
2023/02/04 15:41:17;;;;;;;17.92;6.00;;;18.00;98.50;;;;;;10563178;28;20464;-26
2023/02/04 15:46:19;;;;;;;9.70;4.13;;;18.10;98.10;;;;;;10552233;28;20200;-26
2023/02/04 15:51:22;;;;;;;10.33;4.63;;;18.10;98.30;;;;;;10557807;28;20043;-26
2023/02/04 15:56:24;;;;;;;8.60;4.65;;;17.60;99.90;;;;;;10561128;28;20504;-27
2023/02/04 16:01:26;;;;;;;10.18;5.25;;;18.00;99.00;;;;;;10572854;28;20101;-27
2023/02/04 16:06:29;;;;;;;10.30;5.23;;;18.00;99.40;;;;;;10548068;28;20048;-25
2023/02/04 16:11:31;;;;;;;9.80;4.75;;;15.20;99.90;;;;;;10560960;28;20050;-26
2023/02/04 16:16:33;;;;;;;;;;;16.70;99.90;;;;;;10572934;28;20480;-25
2023/02/04 16:21:36;;;;;;;11.93;5.45;;;16.40;99.90;;;;;;10556067;28;20275;-25
2023/02/04 16:26:38;;;;;;;12.35;5.53;;;17.80;99.90;;;;;;10570165;28;20526;-25
2023/02/04 16:31:40;;;;;;;5.77;2.67;;;17.20;99.90;;;;;;10563044;28;20062;-27
2023/02/04 16:36:43;;;;;;;7.83;3.53;;;17.50;99.90;;;;;;10570617;28;20512;-25
2023/02/04 16:41:45;;;;;;;30.52;8.98;;;18.70;99.30;;;;;;10562414;28;20130;-26
2023/02/04 16:46:49;;;;;;;66.28;18.73;;;19.20;97.20;;;;;;10563002;28;20743;-26
2023/02/04 16:51:52;;;;;;;75.82;19.80;;;19.80;98.10;;;;;;10561155;28;20126;-26
2023/02/04 16:56:55;;;;;;;56.10;18.10;;;19.60;95.70;;;;;;10571631;28;20043;-25
2023/02/04 17:01:59;;;;;;;48.95;15.02;;;19.50;95.60;;;;;;10568156;28;20054;-24
2023/02/04 17:07:02;;;;;;;45.25;13.00;;;19.30;96.00;;;;;;10553575;28;20040;-25
2023/02/04 17:12:04;;;;;;;31.15;10.00;;;19.20;95.90;;;;;;10555239;28;20105;-25
2023/02/04 17:17:06;;;;;;;23.38;9.50;;;19.10;95.20;;;;;;10567541;28;20132;-24
2023/02/04 17:22:09;;;;;;;18.25;6.45;;;19.10;94.90;;;;;;10553510;28;20050;-27
2023/02/04 17:27:12;;;;;;;16.73;6.38;;;19.00;94.50;;;;;;10542072;28;20091;-25
2023/02/04 17:32:14;;;;;;;14.90;5.30;;;19.10;94.30;;;;;;10546400;28;20078;-26
2023/02/04 17:37:17;;;;;;;13.38;5.45;;;19.00;93.60;;;;;;10556047;28;20134;-26
2023/02/04 17:42:19;;;;;;;20.10;9.43;;;19.10;93.50;;;;;;10554984;27;20082;-23
2023/02/04 17:47:21;;;;;;;45.38;20.55;;;19.00;93.50;;;;;;10557387;28;20460;-23
2023/02/04 17:52:25;;;;;;;92.13;47.78;;;19.00;93.60;;;;;;10559968;28;20043;-26
2023/02/04 17:57:27;;;;;;;118.10;64.70;;;19.00;93.70;;;;;;10557941;27;20048;-25
2023/02/04 18:02:30;;;;;;;174.02;96.03;;;19.00;93.70;;;;;;10553480;28;20079;-24
2023/02/04 18:07:34;;;;;;;196.98;107.90;;;18.80;94.30;;;;;;10561210;28;20134;-25
2023/02/04 18:12:36;;;;;;;260.17;150.65;;;18.20;96.80;;;;;;10555972;28;20153;-27
2023/02/04 18:17:38;;;;;;;278.42;155.65;;;18.00;97.60;;;;;;10553023;28;20039;-26
2023/02/04 18:22:41;;;;;;;250.73;140.33;;;16.50;99.90;;;;;;10555453;28;20075;-26
2023/02/04 18:27:43;;;;;;;215.43;123.88;;;16.60;99.90;;;;;;10557745;28;20508;-24
2023/02/04 18:32:46;;;;;;;174.73;95.38;;;17.00;99.90;;;;;;10569960;28;20048;-26
2023/02/04 18:37:52;;;;;;;254.38;146.25;;;14.30;99.90;;;;;;10551462;28;20047;-25
2023/02/04 18:43:03;;;;;;;243.32;131.63;;;13.80;99.90;;;;;;10552614;28;20098;-25
2023/02/04 18:48:38;;;;;;;259.38;143.18;;;15.70;99.90;;;;;;10539967;28;20054;-25
2023/02/04 18:53:41;;;;;;;268.52;154.18;;;16.50;99.90;;;;;;10560153;28;20439;-25
2023/02/04 18:58:46;;;;;;;228.73;129.35;;;17.00;99.90;;;;;;10549001;28;20513;-25
2023/02/04 19:03:51;;;;;;;110.85;59.97;;;17.30;99.90;;;;;;10561639;28;20533;-26
2023/02/04 19:09:03;;;;;;;213.02;114.68;;;17.10;99.90;;;;;;10553591;28;20043;-25
2023/02/04 19:14:17;;;;;;;147.15;79.00;;;18.00;99.90;;;;;;10553851;28;20055;-25
2023/02/04 19:19:35;;;;;;;161.82;86.07;;;18.40;98.80;;;;;;10561569;28;20511;-26
2023/02/04 19:24:40;;;;;;;138.27;74.70;;;18.10;99.90;;;;;;10550903;28;20048;-27
2023/02/04 19:29:43;;;;;;;126.00;68.18;;;17.80;99.90;;;;;;10564396;28;20071;-25
2023/02/04 19:34:46;;;;;;;25.33;14.80;;;18.40;98.70;;;;;;10544684;28;20140;-26
2023/02/04 19:39:50;;;;;;;104.43;56.60;;;17.20;94.80;;;;;;10537637;28;20043;-25
2023/02/04 19:44:52;;;;;;;102.03;57.25;;;17.30;99.90;;;;;;10553098;28;20048;-25
2023/02/04 19:50:02;;;;;;;108.15;57.97;;;18.20;99.90;;;;;;10558011;28;20131;-26
2023/02/04 19:55:34;;;;;;;95.65;52.70;;;18.60;98.60;;;;;;10548899;28;20047;-26
2023/02/04 20:00:41;;;;;;;17.45;9.35;;;18.50;98.80;;;;;;10551700;28;20084;-25
2023/02/04 20:05:43;;;;;;;86.05;48.25;;;17.80;96.30;;;;;;10554495;28;20055;-26
2023/02/04 20:10:46;;;;;;;102.40;57.47;;;18.60;98.80;;;;;;10552657;28;20578;-26
2023/02/04 20:15:50;;;;;;;55.95;30.20;;;18.10;99.90;;;;;;10557093;28;20056;-26
2023/02/04 20:20:53;;;;;;;112.50;59.30;;;18.60;98.70;;;;;;10558704;28;20122;-25
2023/02/04 20:25:57;;;;;;;90.57;48.97;;;18.50;98.90;;;;;;10563201;28;20039;-25
2023/02/04 20:31:00;;;;;;;82.53;43.28;;;18.30;99.70;;;;;;10555023;28;20082;-25
2023/02/04 20:36:39;;;;;;;93.10;52.13;;;18.30;99.40;;;;;;10557882;28;20492;-26
2023/02/04 20:41:43;;;;;;;72.38;40.88;;;18.10;99.90;;;;;;10552883;28;20143;-25
2023/02/04 20:46:45;;;;;;;74.43;42.05;;;18.40;98.90;;;;;;10562011;28;20046;-24
2023/02/04 20:51:47;;;;;;;74.53;39.42;;;18.70;97.60;;;;;;10563869;28;20051;-27
2023/02/04 20:56:50;;;;;;;85.60;47.90;;;18.70;97.40;;;;;;10561845;28;20047;-25
2023/02/04 21:01:52;;;;;;;45.30;25.40;;;18.80;96.90;;;;;;10566533;28;20134;-25
2023/02/04 21:06:58;;;;;;;64.85;33.92;;;18.10;94.80;;;;;;10564801;28;20044;-25
2023/02/04 21:12:02;;;;;;;30.63;16.90;;;17.70;99.90;;;;;;10560994;28;20071;-25
2023/02/04 21:17:04;;;;;;;85.75;46.55;;;17.40;97.60;;;;;;10545334;28;20050;-24
2023/02/04 21:22:06;;;;;;;59.65;33.63;;;18.10;99.40;;;;;;10561840;28;20797;-24
2023/02/04 21:27:10;;;;;;;78.22;41.53;;;18.30;98.80;;;;;;10557170;28;20126;-26
2023/02/04 21:32:11;;;;;;;40.13;21.08;;;17.70;99.90;;;;;;10556645;28;20179;-24
2023/02/04 21:37:13;;;;;;;34.67;17.67;;;17.60;99.70;;;;;;10557085;28;20520;-26
2023/02/04 21:42:16;;;;;;;35.45;21.20;;;17.10;99.90;;;;;;10556903;28;20569;-25
2023/02/04 21:47:18;;;;;;;73.07;41.90;;;16.50;99.90;;;;;;10549354;28;20059;-25
2023/02/04 21:52:20;;;;;;;21.25;10.52;;;17.70;99.90;;;;;;10559702;28;20511;-24
2023/02/04 21:57:23;;;;;;;49.30;25.00;;;15.70;96.20;;;;;;10564692;28;20087;-26
2023/02/04 22:02:25;;;;;;;39.03;21.10;;;16.50;99.90;;;;;;10553854;28;20051;-24
2023/02/04 22:07:27;;;;;;;17.57;10.20;;;15.10;99.90;;;;;;10550465;28;20130;-25
2023/02/04 22:12:31;;;;;;;31.80;16.30;;;13.80;99.90;;;;;;10541384;28;20082;-25
2023/02/04 22:17:32;;;;;;;24.85;11.75;;;14.20;99.90;;;;;;10561068;28;20126;-25
2023/02/04 22:22:34;;;;;;;29.73;17.83;;;13.90;99.90;;;;;;10546127;28;20061;-24
2023/02/04 22:27:37;;;;;;;55.33;28.77;;;15.10;99.90;;;;;;10538640;28;20147;-24
2023/02/04 22:32:39;;;;;;;49.67;24.50;;;15.20;99.90;;;;;;10566065;28;20454;-25
2023/02/04 22:37:41;;;;;;;47.27;26.13;;;16.70;99.90;;;;;;10526765;28;20487;-26
2023/02/04 22:42:45;;;;;;;37.58;20.27;;;14.20;99.90;;;;;;10556834;28;20514;-25
2023/02/04 22:47:47;;;;;;;43.47;25.58;;;15.60;99.90;;;;;;10547327;27;20047;-25
2023/02/04 22:52:49;;;;;;;38.60;22.43;;;16.10;99.90;;;;;;10547441;28;20040;-24
2023/02/04 22:57:52;;;;;;;22.17;12.53;;;15.80;99.90;;;;;;10557005;28;20522;-25
2023/02/04 23:02:53;;;;;;;21.27;11.80;;;16.00;99.90;;;;;;10560470;28;20478;-25
2023/02/04 23:07:55;;;;;;;15.40;7.80;;;15.40;99.90;;;;;;10560320;28;20083;-25
2023/02/04 23:12:59;;;;;;;16.80;9.23;;;14.40;99.90;;;;;;10563170;28;20476;-25
2023/02/04 23:18:00;;;;;;;31.17;17.98;;;14.70;99.90;;;;;;10560245;28;20515;-25
2023/02/04 23:23:03;;;;;;;28.47;16.30;;;14.80;99.90;;;;;;10551046;28;20054;-25
2023/02/04 23:28:06;;;;;;;26.95;14.43;;;14.30;99.90;;;;;;10560966;28;20072;-24
2023/02/04 23:33:09;;;;;;;34.33;19.35;;;16.20;99.90;;;;;;10554743;28;20582;-24
2023/02/04 23:38:11;;;;;;;13.63;6.07;;;17.00;99.90;;;;;;10554978;28;20928;-24
2023/02/04 23:43:14;;;;;;;7.43;5.73;;;14.80;99.90;;;;;;10559948;28;20127;-25
2023/02/04 23:48:16;;;;;;;25.88;15.35;;;12.80;99.90;;;;;;10548402;28;20075;-25
2023/02/04 23:53:19;;;;;;;9.57;2.47;;;14.20;99.90;;;;;;10556433;28;20100;-25
2023/02/04 23:58:22;;;;;;;18.13;8.07;;;11.70;99.90;;;;;;10562424;28;20056;-25
